RYR2LH LICC-LIMJ
Flight info
| Callsign | RYR2LH |
|---|---|
| Flight time | 1h 22m |
| Altitude | 34000 |
| Route | BUDIN DCT TAGEL DCT ELB DCT BETEN/N0339F180 M729 IDONA |
| Aircraft | B38M/M-SDE1FGHILORVWXY/HB1 |
Departure
| Time | 2026-04-26 16:36 |
|---|---|
| Airport | Catania-Fontanarossa Airport (LICC) |
Arrival
| Time | 2026-04-26 17:59 |
|---|---|
| Airport | Genoa Cristoforo Colombo Airport (LIMJ) |
| Time | Latitude | Longitude | Altitude | Speed | Heading |
|---|---|---|---|---|---|
| 2026-04-26 15:25 | 37.46914 | 15.06683 | 51 ft | 0 kts | 353° |
| 2026-04-26 16:20 | 37.46913 | 15.06683 | 53 ft | 1 kts | 353° |
| 2026-04-26 16:20 | 37.46868 | 15.06706 | 49 ft | 4 kts | 314° |
| 2026-04-26 16:20 | 37.46854 | 15.06734 | 47 ft | 4 kts | 281° |
| 2026-04-26 16:21 | 37.46854 | 15.06753 | 52 ft | 0 kts | 264° |
| 2026-04-26 16:24 | 37.46853 | 15.06745 | 48 ft | 2 kts | 264° |
| 2026-04-26 16:24 | 37.46853 | 15.06742 | 48 ft | 0 kts | 264° |
| 2026-04-26 16:25 | 37.46852 | 15.06729 | 52 ft | 1 kts | 264° |
| 2026-04-26 16:26 | 37.46851 | 15.06720 | 50 ft | 2 kts | 264° |
| 2026-04-26 16:26 | 37.46849 | 15.06693 | 50 ft | 4 kts | 264° |
| 2026-04-26 16:27 | 37.46844 | 15.06646 | 53 ft | 7 kts | 264° |
| 2026-04-26 16:27 | 37.46839 | 15.06579 | 53 ft | 9 kts | 264° |
| 2026-04-26 16:27 | 37.46832 | 15.06497 | 53 ft | 10 kts | 264° |
| 2026-04-26 16:27 | 37.46826 | 15.06422 | 53 ft | 7 kts | 264° |
| 2026-04-26 16:28 | 37.46820 | 15.06350 | 48 ft | 9 kts | 264° |
| 2026-04-26 16:28 | 37.46812 | 15.06259 | 53 ft | 12 kts | 264° |
| 2026-04-26 16:28 | 37.46803 | 15.06149 | 53 ft | 13 kts | 263° |
| 2026-04-26 16:28 | 37.46792 | 15.06025 | 48 ft | 15 kts | 264° |
| 2026-04-26 16:29 | 37.46781 | 15.05895 | 51 ft | 16 kts | 264° |
| 2026-04-26 16:29 | 37.46770 | 15.05753 | 53 ft | 17 kts | 264° |
| 2026-04-26 16:29 | 37.46758 | 15.05623 | 52 ft | 15 kts | 263° |
| 2026-04-26 16:29 | 37.46749 | 15.05517 | 48 ft | 9 kts | 264° |
| 2026-04-26 16:30 | 37.46742 | 15.05434 | 53 ft | 8 kts | 264° |
| 2026-04-26 16:30 | 37.46737 | 15.05359 | 53 ft | 9 kts | 264° |
| 2026-04-26 16:30 | 37.46707 | 15.05297 | 52 ft | 6 kts | 222° |
| 2026-04-26 16:30 | 37.46703 | 15.05292 | 50 ft | 1 kts | 221° |
| 2026-04-26 16:31 | 37.46691 | 15.05279 | 69 ft | 4 kts | 221° |
| 2026-04-26 16:31 | 37.46672 | 15.05257 | 72 ft | 2 kts | 222° |
| 2026-04-26 16:31 | 37.46671 | 15.05256 | 73 ft | 0 kts | 222° |
| 2026-04-26 16:33 | 37.46669 | 15.05254 | 48 ft | 1 kts | 222° |
| 2026-04-26 16:33 | 37.46656 | 15.05239 | 51 ft | 4 kts | 222° |
| 2026-04-26 16:33 | 37.46630 | 15.05210 | 51 ft | 6 kts | 221° |
| 2026-04-26 16:33 | 37.46586 | 15.05194 | 48 ft | 8 kts | 163° |
| 2026-04-26 16:34 | 37.46562 | 15.05253 | 48 ft | 9 kts | 88° |
| 2026-04-26 16:34 | 37.46567 | 15.05315 | 48 ft | 4 kts | 84° |
| 2026-04-26 16:34 | 37.46567 | 15.05319 | 48 ft | 0 kts | 84° |
| 2026-04-26 16:34 | 37.46567 | 15.05320 | 48 ft | 0 kts | 84° |
| 2026-04-26 16:35 | 37.46569 | 15.05339 | 51 ft | 6 kts | 84° |
| 2026-04-26 16:35 | 37.46587 | 15.05556 | 52 ft | 61 kts | 84° |
| 2026-04-26 16:35 | 37.46661 | 15.06436 | 55 ft | 138 kts | 84° |
| 2026-04-26 16:36 | 37.46777 | 15.07865 | 336 ft | 178 kts | 83° |
| 2026-04-26 16:36 | 37.46905 | 15.09463 | 1264 ft | 189 kts | 82° |
| 2026-04-26 16:36 | 37.47143 | 15.11172 | 1980 ft | 208 kts | 81° |
| 2026-04-26 16:36 | 37.47330 | 15.12416 | 2278 ft | 227 kts | 80° |
| 2026-04-26 16:37 | 37.47655 | 15.14463 | 2904 ft | 247 kts | 80° |
| 2026-04-26 16:37 | 37.47964 | 15.16650 | 3698 ft | 259 kts | 81° |
| 2026-04-26 16:37 | 37.48339 | 15.19658 | 5019 ft | 261 kts | 80° |
| 2026-04-26 16:37 | 37.48550 | 15.21180 | 5739 ft | 262 kts | 79° |
| 2026-04-26 16:38 | 37.48978 | 15.24195 | 7027 ft | 265 kts | 79° |
| 2026-04-26 16:38 | 37.49194 | 15.25744 | 7669 ft | 267 kts | 79° |
| 2026-04-26 16:38 | 37.49698 | 15.28024 | 8377 ft | 279 kts | 61° |
| 2026-04-26 16:38 | 37.50985 | 15.29862 | 9183 ft | 282 kts | 34° |
| 2026-04-26 16:39 | 37.52657 | 15.31204 | 10066 ft | 288 kts | 33° |
| 2026-04-26 16:39 | 37.54359 | 15.32570 | 10620 ft | 303 kts | 32° |
| 2026-04-26 16:39 | 37.56198 | 15.34029 | 11076 ft | 320 kts | 32° |
| 2026-04-26 16:39 | 37.58127 | 15.35550 | 11610 ft | 334 kts | 32° |
| 2026-04-26 16:40 | 37.60121 | 15.37118 | 12342 ft | 339 kts | 32° |
| 2026-04-26 16:40 | 37.62139 | 15.38702 | 13139 ft | 345 kts | 32° |
| 2026-04-26 16:40 | 37.64195 | 15.40317 | 13905 ft | 350 kts | 32° |
| 2026-04-26 16:40 | 37.66278 | 15.41953 | 14644 ft | 354 kts | 32° |
| 2026-04-26 16:41 | 37.68381 | 15.43604 | 15366 ft | 358 kts | 31° |
| 2026-04-26 16:41 | 37.70666 | 15.44849 | 16076 ft | 360 kts | 12° |
| 2026-04-26 16:41 | 37.73161 | 15.45050 | 16785 ft | 362 kts | 352° |
| 2026-04-26 16:41 | 37.75596 | 15.44239 | 17474 ft | 364 kts | 338° |
| 2026-04-26 16:42 | 37.77981 | 15.43107 | 18148 ft | 368 kts | 338° |
| 2026-04-26 16:42 | 37.80384 | 15.41945 | 18776 ft | 371 kts | 338° |
| 2026-04-26 16:42 | 37.82796 | 15.40759 | 19397 ft | 374 kts | 337° |
| 2026-04-26 16:42 | 37.85224 | 15.39551 | 19998 ft | 376 kts | 337° |
| 2026-04-26 16:43 | 37.87671 | 15.38329 | 20595 ft | 378 kts | 337° |
| 2026-04-26 16:43 | 37.90128 | 15.37099 | 21190 ft | 381 kts | 337° |
| 2026-04-26 16:43 | 37.92601 | 15.35858 | 21767 ft | 384 kts | 337° |
| 2026-04-26 16:43 | 37.95064 | 15.34621 | 22328 ft | 386 kts | 337° |
| 2026-04-26 16:44 | 37.97574 | 15.33360 | 22888 ft | 389 kts | 337° |
| 2026-04-26 16:44 | 38.00101 | 15.32089 | 23455 ft | 392 kts | 337° |
| 2026-04-26 16:44 | 38.02646 | 15.30809 | 23957 ft | 395 kts | 337° |
| 2026-04-26 16:44 | 38.05208 | 15.29518 | 24426 ft | 397 kts | 336° |
| 2026-04-26 16:45 | 38.07777 | 15.28223 | 24894 ft | 399 kts | 336° |
| 2026-04-26 16:45 | 38.10362 | 15.26919 | 25355 ft | 400 kts | 336° |
| 2026-04-26 16:45 | 38.12953 | 15.25612 | 25818 ft | 401 kts | 336° |
| 2026-04-26 16:45 | 38.15562 | 15.24295 | 26195 ft | 406 kts | 336° |
| 2026-04-26 16:46 | 38.18198 | 15.22961 | 26627 ft | 408 kts | 336° |
| 2026-04-26 16:46 | 38.20839 | 15.21625 | 27064 ft | 409 kts | 336° |
| 2026-04-26 16:46 | 38.23492 | 15.20282 | 27487 ft | 411 kts | 336° |
| 2026-04-26 16:46 | 38.26159 | 15.18931 | 27905 ft | 413 kts | 336° |
| 2026-04-26 16:47 | 38.28838 | 15.17572 | 28308 ft | 415 kts | 335° |
| 2026-04-26 16:47 | 38.31529 | 15.16206 | 28707 ft | 417 kts | 335° |
| 2026-04-26 16:47 | 38.34233 | 15.14833 | 29104 ft | 419 kts | 335° |
| 2026-04-26 16:47 | 38.36949 | 15.13452 | 29506 ft | 421 kts | 335° |
| 2026-04-26 16:48 | 38.39655 | 15.12076 | 29784 ft | 426 kts | 336° |
| 2026-04-26 16:48 | 38.42419 | 15.10669 | 30119 ft | 428 kts | 336° |
| 2026-04-26 16:48 | 38.45193 | 15.09256 | 30452 ft | 430 kts | 336° |
| 2026-04-26 16:48 | 38.47920 | 15.07655 | 30741 ft | 429 kts | 324° |
| 2026-04-26 16:49 | 38.50315 | 15.05412 | 31090 ft | 428 kts | 322° |
| 2026-04-26 16:49 | 38.52737 | 15.03179 | 31347 ft | 431 kts | 322° |
| 2026-04-26 16:49 | 38.55160 | 15.00923 | 31677 ft | 431 kts | 321° |
| 2026-04-26 16:49 | 38.57594 | 14.98638 | 31985 ft | 433 kts | 321° |
| 2026-04-26 16:50 | 38.60015 | 14.96358 | 32336 ft | 433 kts | 321° |
| 2026-04-26 16:50 | 38.62407 | 14.94100 | 32762 ft | 431 kts | 321° |
| 2026-04-26 16:50 | 38.64824 | 14.91817 | 33091 ft | 432 kts | 322° |
| 2026-04-26 16:50 | 38.67245 | 14.89528 | 33428 ft | 433 kts | 321° |
| 2026-04-26 16:51 | 38.69662 | 14.87239 | 33824 ft | 431 kts | 321° |
| 2026-04-26 16:51 | 38.72075 | 14.84954 | 34139 ft | 432 kts | 321° |
| 2026-04-26 16:51 | 38.76888 | 14.80389 | 34158 ft | 428 kts | 321° |
| 2026-04-26 16:52 | 38.80894 | 14.76583 | 34154 ft | 428 kts | 321° |
| 2026-04-26 16:52 | 38.86456 | 14.71290 | 34148 ft | 428 kts | 321° |
| 2026-04-26 16:53 | 38.91250 | 14.66719 | 34157 ft | 431 kts | 321° |
| 2026-04-26 16:53 | 38.96065 | 14.62120 | 34145 ft | 431 kts | 321° |
| 2026-04-26 16:54 | 39.00877 | 14.57517 | 34146 ft | 431 kts | 321° |
| 2026-04-26 16:54 | 39.05687 | 14.52907 | 34145 ft | 431 kts | 321° |
| 2026-04-26 16:55 | 39.10495 | 14.48291 | 34143 ft | 431 kts | 321° |
| 2026-04-26 16:55 | 39.15301 | 14.43670 | 34145 ft | 433 kts | 322° |
| 2026-04-26 16:56 | 39.22554 | 14.36678 | 34149 ft | 435 kts | 322° |
| 2026-04-26 16:57 | 39.27409 | 14.31988 | 34147 ft | 440 kts | 322° |
| 2026-04-26 16:57 | 39.34748 | 14.24883 | 34146 ft | 440 kts | 322° |
| 2026-04-26 16:58 | 39.38823 | 14.20931 | 34150 ft | 440 kts | 322° |
| 2026-04-26 16:59 | 39.46995 | 14.12984 | 34148 ft | 440 kts | 322° |
| 2026-04-26 17:00 | 39.56747 | 14.03471 | 34146 ft | 440 kts | 322° |
| 2026-04-26 17:00 | 39.64070 | 13.96304 | 34152 ft | 439 kts | 322° |
| 2026-04-26 17:01 | 39.68956 | 13.91512 | 34147 ft | 440 kts | 322° |
| 2026-04-26 17:01 | 39.73832 | 13.86720 | 34146 ft | 440 kts | 322° |
| 2026-04-26 17:02 | 39.78718 | 13.81910 | 34144 ft | 440 kts | 322° |
| 2026-04-26 17:02 | 39.83597 | 13.77098 | 34143 ft | 441 kts | 322° |
| 2026-04-26 17:03 | 39.88480 | 13.72273 | 34142 ft | 441 kts | 322° |
| 2026-04-26 17:03 | 39.93363 | 13.67440 | 34144 ft | 441 kts | 322° |
| 2026-04-26 17:04 | 39.98242 | 13.62601 | 34143 ft | 441 kts | 322° |
| 2026-04-26 17:04 | 40.03124 | 13.57751 | 34143 ft | 440 kts | 322° |
| 2026-04-26 17:05 | 40.07993 | 13.52904 | 34144 ft | 440 kts | 322° |
| 2026-04-26 17:05 | 40.12834 | 13.48078 | 34137 ft | 441 kts | 322° |
| 2026-04-26 17:06 | 40.17705 | 13.43214 | 34135 ft | 440 kts | 322° |
| 2026-04-26 17:06 | 40.22565 | 13.38351 | 34139 ft | 440 kts | 322° |
| 2026-04-26 17:07 | 40.27425 | 13.33480 | 34142 ft | 440 kts | 322° |
| 2026-04-26 17:07 | 40.32113 | 13.28337 | 34158 ft | 440 kts | 318° |
| 2026-04-26 17:08 | 40.36692 | 13.23078 | 34143 ft | 440 kts | 319° |
| 2026-04-26 17:08 | 40.41309 | 13.17806 | 34141 ft | 439 kts | 319° |
| 2026-04-26 17:09 | 40.45164 | 13.13398 | 34142 ft | 439 kts | 319° |
| 2026-04-26 17:09 | 40.50521 | 13.07263 | 34142 ft | 439 kts | 319° |
| 2026-04-26 17:10 | 40.55126 | 13.01978 | 34148 ft | 439 kts | 319° |
| 2026-04-26 17:10 | 40.59728 | 12.96687 | 34152 ft | 439 kts | 319° |
| 2026-04-26 17:11 | 40.64327 | 12.91389 | 34141 ft | 439 kts | 319° |
| 2026-04-26 17:11 | 40.68915 | 12.86093 | 34139 ft | 438 kts | 319° |
| 2026-04-26 17:12 | 40.75764 | 12.78170 | 34140 ft | 438 kts | 319° |
| 2026-04-26 17:13 | 40.82636 | 12.70196 | 34138 ft | 438 kts | 319° |
| 2026-04-26 17:14 | 40.89500 | 12.62210 | 34140 ft | 438 kts | 318° |
| 2026-04-26 17:14 | 40.96345 | 12.54222 | 34140 ft | 437 kts | 318° |
| 2026-04-26 17:15 | 41.03187 | 12.46215 | 34141 ft | 438 kts | 318° |
| 2026-04-26 17:16 | 41.07751 | 12.40860 | 34142 ft | 438 kts | 318° |
| 2026-04-26 17:16 | 41.12312 | 12.35499 | 34147 ft | 437 kts | 318° |
| 2026-04-26 17:17 | 41.16821 | 12.30190 | 34139 ft | 436 kts | 318° |
| 2026-04-26 17:17 | 41.21361 | 12.24833 | 34140 ft | 436 kts | 318° |
| 2026-04-26 17:18 | 41.25892 | 12.19476 | 34136 ft | 436 kts | 317° |
| 2026-04-26 17:18 | 41.30427 | 12.14105 | 34138 ft | 436 kts | 317° |
| 2026-04-26 17:19 | 41.37220 | 12.06039 | 34144 ft | 436 kts | 317° |
| 2026-04-26 17:19 | 41.41735 | 12.00664 | 34140 ft | 435 kts | 317° |
| 2026-04-26 17:20 | 41.44722 | 11.97104 | 34143 ft | 435 kts | 317° |
| 2026-04-26 17:20 | 41.50754 | 11.89898 | 34138 ft | 435 kts | 317° |
| 2026-04-26 17:21 | 41.55231 | 11.84539 | 34138 ft | 435 kts | 317° |
| 2026-04-26 17:21 | 41.59764 | 11.79100 | 34138 ft | 435 kts | 317° |
| 2026-04-26 17:22 | 41.64232 | 11.73731 | 34137 ft | 434 kts | 317° |
| 2026-04-26 17:22 | 41.68727 | 11.68318 | 34138 ft | 434 kts | 317° |
| 2026-04-26 17:23 | 41.73216 | 11.62901 | 34140 ft | 434 kts | 317° |
| 2026-04-26 17:23 | 41.77702 | 11.57478 | 34141 ft | 434 kts | 316° |
| 2026-04-26 17:24 | 41.82178 | 11.52055 | 34140 ft | 434 kts | 316° |
| 2026-04-26 17:24 | 41.86632 | 11.46649 | 34141 ft | 433 kts | 316° |
| 2026-04-26 17:25 | 41.91095 | 11.41221 | 34139 ft | 433 kts | 316° |
| 2026-04-26 17:25 | 41.95562 | 11.35778 | 34137 ft | 433 kts | 316° |
| 2026-04-26 17:26 | 42.00022 | 11.30333 | 34138 ft | 433 kts | 316° |
| 2026-04-26 17:26 | 42.03730 | 11.25797 | 34137 ft | 433 kts | 316° |
| 2026-04-26 17:27 | 42.08186 | 11.20337 | 34145 ft | 433 kts | 316° |
| 2026-04-26 17:27 | 42.12627 | 11.14883 | 34137 ft | 432 kts | 316° |
| 2026-04-26 17:28 | 42.17070 | 11.09418 | 34141 ft | 432 kts | 316° |
| 2026-04-26 17:28 | 42.21507 | 11.03948 | 34138 ft | 432 kts | 316° |
| 2026-04-26 17:29 | 42.25194 | 10.99394 | 34139 ft | 432 kts | 316° |
| 2026-04-26 17:29 | 42.30345 | 10.93020 | 34134 ft | 432 kts | 316° |
| 2026-04-26 17:30 | 42.34797 | 10.87499 | 34138 ft | 432 kts | 316° |
| 2026-04-26 17:30 | 42.39191 | 10.82039 | 34137 ft | 432 kts | 316° |
| 2026-04-26 17:31 | 42.43617 | 10.76529 | 34140 ft | 432 kts | 316° |
| 2026-04-26 17:31 | 42.48030 | 10.71023 | 34137 ft | 432 kts | 316° |
| 2026-04-26 17:32 | 42.52445 | 10.65506 | 34146 ft | 432 kts | 316° |
| 2026-04-26 17:32 | 42.56861 | 10.59977 | 34139 ft | 431 kts | 316° |
| 2026-04-26 17:33 | 42.61264 | 10.54455 | 34142 ft | 430 kts | 316° |
| 2026-04-26 17:34 | 42.67834 | 10.46193 | 34143 ft | 429 kts | 316° |
| 2026-04-26 17:34 | 42.72222 | 10.40675 | 34147 ft | 429 kts | 318° |
| 2026-04-26 17:34 | 42.74699 | 10.38445 | 34145 ft | 429 kts | 333° |
| 2026-04-26 17:35 | 42.77357 | 10.36587 | 34133 ft | 430 kts | 329° |
| 2026-04-26 17:35 | 42.82581 | 10.32626 | 33765 ft | 427 kts | 330° |
| 2026-04-26 17:35 | 42.85188 | 10.30651 | 33019 ft | 428 kts | 330° |
| 2026-04-26 17:36 | 42.87785 | 10.28683 | 32412 ft | 426 kts | 330° |
| 2026-04-26 17:36 | 42.90359 | 10.26730 | 31918 ft | 421 kts | 330° |
| 2026-04-26 17:36 | 42.92908 | 10.24795 | 31399 ft | 418 kts | 330° |
| 2026-04-26 17:36 | 42.95440 | 10.22871 | 30870 ft | 415 kts | 330° |
| 2026-04-26 17:37 | 42.97958 | 10.20956 | 30342 ft | 413 kts | 330° |
| 2026-04-26 17:37 | 43.00436 | 10.19068 | 29745 ft | 412 kts | 330° |
| 2026-04-26 17:37 | 43.02929 | 10.17168 | 29186 ft | 409 kts | 330° |
| 2026-04-26 17:38 | 43.07848 | 10.13414 | 28166 ft | 402 kts | 330° |
| 2026-04-26 17:38 | 43.10286 | 10.11551 | 27661 ft | 399 kts | 330° |
| 2026-04-26 17:38 | 43.12701 | 10.09703 | 27161 ft | 396 kts | 330° |
| 2026-04-26 17:38 | 43.15101 | 10.07865 | 26668 ft | 394 kts | 330° |
| 2026-04-26 17:39 | 43.17489 | 10.06035 | 26178 ft | 392 kts | 330° |
| 2026-04-26 17:39 | 43.19865 | 10.04213 | 25708 ft | 390 kts | 329° |
| 2026-04-26 17:39 | 43.22228 | 10.02398 | 25214 ft | 389 kts | 329° |
| 2026-04-26 17:39 | 43.24585 | 10.00588 | 24737 ft | 388 kts | 329° |
| 2026-04-26 17:40 | 43.26933 | 9.98781 | 24259 ft | 386 kts | 329° |
| 2026-04-26 17:40 | 43.28486 | 9.97586 | 23947 ft | 386 kts | 329° |
| 2026-04-26 17:40 | 43.31608 | 9.95181 | 23262 ft | 384 kts | 329° |
| 2026-04-26 17:40 | 43.33931 | 9.93389 | 22774 ft | 382 kts | 329° |
| 2026-04-26 17:41 | 43.36240 | 9.91607 | 22326 ft | 379 kts | 329° |
| 2026-04-26 17:41 | 43.38527 | 9.89841 | 21884 ft | 376 kts | 329° |
| 2026-04-26 17:41 | 43.40797 | 9.88085 | 21451 ft | 373 kts | 330° |
| 2026-04-26 17:41 | 43.43050 | 9.86342 | 21022 ft | 370 kts | 330° |
| 2026-04-26 17:42 | 43.45283 | 9.84612 | 20603 ft | 368 kts | 330° |
| 2026-04-26 17:42 | 43.47506 | 9.82889 | 20181 ft | 366 kts | 329° |
| 2026-04-26 17:42 | 43.49715 | 9.81175 | 19774 ft | 363 kts | 329° |
| 2026-04-26 17:42 | 43.51912 | 9.79470 | 19371 ft | 361 kts | 329° |
| 2026-04-26 17:43 | 43.54097 | 9.77773 | 18975 ft | 359 kts | 329° |
| 2026-04-26 17:43 | 43.56251 | 9.76101 | 18519 ft | 360 kts | 329° |
| 2026-04-26 17:43 | 43.58426 | 9.74414 | 18099 ft | 357 kts | 330° |
| 2026-04-26 17:43 | 43.60584 | 9.72739 | 17696 ft | 354 kts | 330° |
| 2026-04-26 17:44 | 43.62719 | 9.71080 | 17306 ft | 351 kts | 330° |
| 2026-04-26 17:44 | 43.64839 | 9.69432 | 16922 ft | 348 kts | 330° |
| 2026-04-26 17:44 | 43.66945 | 9.67793 | 16534 ft | 345 kts | 330° |
| 2026-04-26 17:44 | 43.69029 | 9.66170 | 16159 ft | 342 kts | 330° |
| 2026-04-26 17:45 | 43.71097 | 9.64558 | 15789 ft | 340 kts | 330° |
| 2026-04-26 17:45 | 43.73151 | 9.62957 | 15417 ft | 338 kts | 330° |
| 2026-04-26 17:45 | 43.75190 | 9.61365 | 15041 ft | 335 kts | 330° |
| 2026-04-26 17:45 | 43.77216 | 9.59782 | 14680 ft | 334 kts | 330° |
| 2026-04-26 17:46 | 43.79235 | 9.58205 | 14273 ft | 333 kts | 331° |
| 2026-04-26 17:46 | 43.81250 | 9.56627 | 13889 ft | 332 kts | 331° |
| 2026-04-26 17:46 | 43.83256 | 9.55056 | 13482 ft | 330 kts | 331° |
| 2026-04-26 17:46 | 43.85225 | 9.53513 | 13106 ft | 328 kts | 330° |
| 2026-04-26 17:47 | 43.87203 | 9.51963 | 12723 ft | 326 kts | 330° |
| 2026-04-26 17:47 | 43.88541 | 9.50913 | 12527 ft | 327 kts | 330° |
| 2026-04-26 17:47 | 43.91190 | 9.49044 | 12129 ft | 323 kts | 339° |
| 2026-04-26 17:47 | 43.93314 | 9.47903 | 11539 ft | 330 kts | 339° |
| 2026-04-26 17:48 | 43.95449 | 9.46720 | 11158 ft | 328 kts | 338° |
| 2026-04-26 17:48 | 43.97526 | 9.45549 | 11139 ft | 314 kts | 338° |
| 2026-04-26 17:48 | 43.99503 | 9.44423 | 11144 ft | 300 kts | 338° |
| 2026-04-26 17:48 | 44.01401 | 9.43334 | 10966 ft | 291 kts | 338° |
| 2026-04-26 17:49 | 44.03258 | 9.42265 | 10609 ft | 287 kts | 338° |
| 2026-04-26 17:49 | 44.05092 | 9.41207 | 10200 ft | 286 kts | 338° |
| 2026-04-26 17:49 | 44.06950 | 9.40133 | 9757 ft | 292 kts | 338° |
| 2026-04-26 17:49 | 44.08832 | 9.39046 | 9374 ft | 293 kts | 338° |
| 2026-04-26 17:50 | 44.10717 | 9.37956 | 9046 ft | 292 kts | 338° |
| 2026-04-26 17:50 | 44.12583 | 9.36876 | 8751 ft | 290 kts | 338° |
| 2026-04-26 17:50 | 44.14434 | 9.35804 | 8595 ft | 287 kts | 338° |
| 2026-04-26 17:50 | 44.16277 | 9.34735 | 8469 ft | 287 kts | 338° |
| 2026-04-26 17:51 | 44.18126 | 9.33663 | 8325 ft | 287 kts | 338° |
| 2026-04-26 17:51 | 44.19966 | 9.32594 | 8155 ft | 286 kts | 338° |
| 2026-04-26 17:51 | 44.21784 | 9.31472 | 7959 ft | 286 kts | 330° |
| 2026-04-26 17:51 | 44.23397 | 9.29834 | 7602 ft | 288 kts | 322° |
| 2026-04-26 17:52 | 44.24986 | 9.28114 | 7226 ft | 289 kts | 323° |
| 2026-04-26 17:52 | 44.26577 | 9.26409 | 6831 ft | 287 kts | 323° |
| 2026-04-26 17:52 | 44.28151 | 9.24732 | 6400 ft | 282 kts | 323° |
| 2026-04-26 17:52 | 44.29695 | 9.23096 | 5978 ft | 276 kts | 323° |
| 2026-04-26 17:53 | 44.31206 | 9.21494 | 5584 ft | 269 kts | 323° |
| 2026-04-26 17:53 | 44.32648 | 9.19935 | 5266 ft | 261 kts | 319° |
| 2026-04-26 17:53 | 44.33757 | 9.17980 | 4907 ft | 254 kts | 297° |
| 2026-04-26 17:54 | 44.34843 | 9.13414 | 4237 ft | 242 kts | 286° |
| 2026-04-26 17:54 | 44.35318 | 9.11187 | 3902 ft | 236 kts | 287° |
| 2026-04-26 17:54 | 44.35793 | 9.09016 | 3585 ft | 231 kts | 287° |
| 2026-04-26 17:54 | 44.36265 | 9.06866 | 3278 ft | 231 kts | 285° |
| 2026-04-26 17:55 | 44.36730 | 9.04744 | 2989 ft | 227 kts | 285° |
| 2026-04-26 17:55 | 44.37191 | 9.02649 | 2664 ft | 223 kts | 285° |
| 2026-04-26 17:55 | 44.37637 | 9.00617 | 2346 ft | 213 kts | 285° |
| 2026-04-26 17:55 | 44.38057 | 8.98709 | 2046 ft | 198 kts | 285° |
| 2026-04-26 17:56 | 44.38448 | 8.96923 | 1751 ft | 186 kts | 286° |
| 2026-04-26 17:56 | 44.39130 | 8.93817 | 1297 ft | 153 kts | 286° |
| 2026-04-26 17:57 | 44.39799 | 8.91022 | 841 ft | 151 kts | 287° |
| 2026-04-26 17:57 | 44.40115 | 8.89628 | 648 ft | 149 kts | 285° |
| 2026-04-26 17:57 | 44.40397 | 8.88248 | 447 ft | 147 kts | 284° |
| 2026-04-26 17:57 | 44.40664 | 8.86878 | 239 ft | 145 kts | 283° |
| 2026-04-26 17:58 | 44.41298 | 8.83661 | 22 ft | 53 kts | 285° |
| 2026-04-26 17:59 | 44.41451 | 8.83117 | 28 ft | 16 kts | 317° |
| 2026-04-26 17:59 | 44.41528 | 8.83101 | 27 ft | 9 kts | 33° |
| 2026-04-26 17:59 | 44.41547 | 8.83175 | 28 ft | 9 kts | 101° |
| 2026-04-26 17:59 | 44.41528 | 8.83272 | 27 ft | 12 kts | 106° |
| 2026-04-26 18:00 | 44.41501 | 8.83409 | 24 ft | 17 kts | 105° |
| 2026-04-26 18:00 | 44.41469 | 8.83577 | 26 ft | 19 kts | 105° |
| 2026-04-26 18:00 | 44.41434 | 8.83753 | 21 ft | 20 kts | 105° |
| 2026-04-26 18:00 | 44.41395 | 8.83952 | 23 ft | 21 kts | 105° |
| 2026-04-26 18:01 | 44.41359 | 8.84135 | 18 ft | 20 kts | 105° |
| 2026-04-26 18:01 | 44.41322 | 8.84321 | 20 ft | 19 kts | 105° |
| 2026-04-26 18:01 | 44.41288 | 8.84496 | 21 ft | 19 kts | 105° |
| 2026-04-26 18:01 | 44.41256 | 8.84662 | 22 ft | 16 kts | 105° |
| 2026-04-26 18:02 | 44.41229 | 8.84792 | 20 ft | 13 kts | 105° |
| 2026-04-26 18:02 | 44.41222 | 8.84832 | 20 ft | 12 kts | 105° |
| 2026-04-26 18:02 | 44.41280 | 8.84937 | 20 ft | 10 kts | 15° |
| 2026-04-26 18:02 | 44.41342 | 8.84945 | 20 ft | 7 kts | 331° |
| 2026-04-26 18:03 | 44.41371 | 8.84889 | 20 ft | 6 kts | 314° |
| 2026-04-26 18:03 | 44.41400 | 8.84886 | 20 ft | 4 kts | 32° |
| 2026-04-26 18:03 | 44.41417 | 8.84919 | 20 ft | 5 kts | 60° |
| 2026-04-26 18:03 | 44.41428 | 8.84944 | 20 ft | 2 kts | 59° |
| 2026-04-26 18:04 | 44.41431 | 8.84951 | 20 ft | 0 kts | 59° |